Time;durP1;ratioP1;P1;durP2;ratioP2;P2;SDS_P1;SDS_P2;PMS_P1;PMS_P2;Temp;Humidity;BMP_temperature;BMP_pressure;BME280_temperature;BME280_humidity;BME280_pressure;Samples;Min_cycle;Max_cycle;Signal;HPM_P1;HPM_P2
2021/12/12 18:15:29;;;;;;;6.90;3.92;;;;;;;23.34;48.13;100453.28;5013989;28;21199;-60
2021/12/12 18:38:16;;;;;;;5.72;2.95;;;;;;;23.83;43.47;100444.44;5016032;28;21661;-62
2021/12/12 19:08:24;;;;;;;5.40;3.65;;;;;;;23.20;44.54;100460.28;5000491;27;20637;-59
2021/12/12 19:40:50;;;;;;;5.00;2.55;;;;;;;8.27;59.98;100512.59;5050557;27;21521;-74
2021/12/12 19:43:20;;;;;;;4.80;2.42;;;;;;;7.60;60.91;100525.69;5040928;28;20104;-74
2021/12/12 19:45:57;;;;;;;2.97;1.90;;;;;;;7.10;64.11;100510.19;5046813;28;20478;-75
2021/12/12 19:48:32;;;;;;;5.35;2.22;;;;;;;7.53;62.75;100545.63;5038943;28;20035;-75
2021/12/12 19:50:59;;;;;;;3.00;2.00;;;;;;;7.14;62.44;100525.00;5039188;28;20055;-75
2021/12/12 19:53:25;;;;;;;3.90;2.17;;;;;;;6.87;62.90;100533.28;5024932;28;20481;-74
2021/12/12 19:55:55;;;;;;;5.57;2.58;;;;;;;6.53;63.00;100511.81;5038250;28;20041;-78
2021/12/12 19:58:32;;;;;;;4.95;2.47;;;;;;;6.25;64.68;100542.59;5037975;28;20144;-73
2021/12/12 20:01:06;;;;;;;4.05;2.15;;;;;;;6.54;63.41;100530.09;5033619;28;20045;-72
2021/12/12 20:03:39;;;;;;;5.25;2.05;;;;;;;6.54;63.54;100537.06;5024294;28;20048;-72
2021/12/12 20:06:15;;;;;;;8.82;3.30;;;;;;;6.58;64.86;100522.31;5039142;28;20102;-75
2021/12/12 20:08:47;;;;;;;12.15;2.63;;;;;;;6.24;64.24;100521.72;5027985;28;20071;-70
2021/12/12 20:11:12;;;;;;;5.05;2.47;;;;;;;6.20;64.51;100517.28;5037133;28;20048;-70
2021/12/12 20:13:49;;;;;;;5.38;3.03;;;;;;;6.50;64.35;100548.25;5041013;28;20397;-71
2021/12/12 20:16:33;;;;;;;6.15;3.33;;;;;;;6.25;65.94;100529.56;5041795;28;20112;-70
2021/12/12 20:19:07;;;;;;;6.85;3.10;;;;;;;6.45;66.02;100531.66;5032146;28;20053;-71
2021/12/12 20:21:38;;;;;;;3.38;2.30;;;;;;;5.96;65.04;100547.19;5021485;28;20033;-70
2021/12/12 20:24:22;;;;;;;5.15;3.08;;;;;;;6.06;65.91;100543.06;5020227;28;20034;-71
2021/12/12 20:26:54;;;;;;;6.70;3.22;;;;;;;6.16;65.95;100555.44;5026600;28;20110;-70
2021/12/12 20:29:21;;;;;;;5.60;3.15;;;;;;;6.22;64.27;100559.88;5023163;28;20131;-70
2021/12/12 20:31:47;;;;;;;3.95;2.97;;;;;;;6.14;65.08;100554.53;5022628;28;20907;-71
2021/12/12 20:34:22;;;;;;;4.57;2.45;;;;;;;6.17;64.95;100541.56;5023370;28;20041;-70
2021/12/12 20:36:58;;;;;;;5.18;3.03;;;;;;;6.23;66.31;100540.81;5024985;28;20049;-70
2021/12/12 20:39:23;;;;;;;4.85;2.40;;;;;;;6.08;66.53;100543.97;5026930;28;20045;-70
2021/12/12 20:42:06;;;;;;;6.82;3.80;;;;;;;6.02;66.70;100559.50;5024580;28;20362;-70
2021/12/12 20:44:42;;;;;;;10.93;6.30;;;;;;;6.05;66.76;100555.22;5022110;28;20264;-70
2021/12/12 20:47:26;;;;;;;11.02;7.57;;;;;;;6.32;65.22;100567.03;5020770;28;20128;-70
2021/12/12 20:50:13;;;;;;;10.90;7.18;;;;;;;5.83;65.17;100558.16;5023004;28;20095;-72
2021/12/12 20:52:47;;;;;;;12.30;7.38;;;;;;;6.03;65.79;100576.88;5007726;28;20353;-70
2021/12/12 20:55:27;;;;;;;11.82;7.30;;;;;;;5.90;65.99;100573.09;5012018;28;20124;-70
2021/12/12 20:58:01;;;;;;;14.00;6.97;;;;;;;5.48;67.04;100574.78;5010967;28;20056;-72
2021/12/12 21:00:34;;;;;;;10.55;5.75;;;;;;;5.60;66.97;100568.09;5010531;28;20056;-70
2021/12/12 21:03:01;;;;;;;8.38;5.00;;;;;;;5.66;66.46;100586.44;5014950;28;20121;-72
2021/12/12 21:06:17;;;;;;;6.88;4.47;;;;;;;5.70;65.66;100578.72;5013918;28;20136;-72
2021/12/12 21:08:50;;;;;;;7.80;5.15;;;;;;;5.58;66.55;100577.59;4985664;28;20650;-71
2021/12/12 21:11:17;;;;;;;7.07;3.78;;;;;;;5.62;66.52;100590.72;5015243;28;20050;-78
2021/12/12 21:13:49;;;;;;;6.57;4.38;;;;;;;5.36;66.89;100565.78;5016146;28;20826;-76
2021/12/12 21:16:28;;;;;;;6.97;3.50;;;;;;;5.32;67.81;100576.97;5013039;28;20108;-76
2021/12/12 21:18:59;;;;;;;6.63;3.15;;;;;;;5.19;67.11;100574.06;5008774;28;20440;-71
2021/12/12 21:21:31;;;;;;;4.20;2.40;;;;;;;5.27;67.80;100587.28;5009308;28;20033;-71
2021/12/12 21:24:03;;;;;;;6.45;3.22;;;;;;;5.25;67.61;100592.44;5014440;28;20148;-70
2021/12/12 21:26:34;;;;;;;5.00;3.05;;;;;;;5.45;67.24;100598.09;5007800;28;20045;-70
2021/12/12 21:29:10;;;;;;;6.63;3.10;;;;;;;5.14;68.60;100585.22;5009434;28;20579;-72
2021/12/12 21:31:42;;;;;;;5.97;2.75;;;;;;;5.48;68.08;100593.00;5011457;28;20049;-74
2021/12/12 21:34:22;;;;;;;4.70;2.90;;;;;;;5.07;68.54;100607.59;5019920;28;20568;-72
2021/12/12 21:39:18;;;;;;;4.00;2.75;;;;;;;5.22;68.81;100589.78;5028377;28;20637;-71
2021/12/12 21:42:11;;;;;;;4.32;2.38;;;;;;;5.09;68.87;100590.28;4982357;28;20081;-70
2021/12/12 21:44:46;;;;;;;6.13;3.33;;;;;;;5.03;70.17;100596.25;4979765;28;20061;-71
2021/12/12 21:47:15;;;;;;;3.58;2.83;;;;;;;4.96;70.38;100594.28;4978611;28;20587;-69
2021/12/12 21:50:08;;;;;;;4.90;3.35;;;;;;;4.87;71.04;100586.28;4977907;28;20042;-69
2021/12/12 21:52:46;;;;;;;5.20;4.10;;;;;;;4.43;72.13;100596.38;4975510;28;20035;-71
2021/12/12 21:55:38;;;;;;;6.65;4.20;;;;;;;4.81;73.03;100596.50;4979357;28;20050;-71
2021/12/12 21:58:10;;;;;;;4.40;2.72;;;;;;;4.58;73.84;100611.50;4985803;28;20785;-68
2021/12/12 22:00:39;;;;;;;5.82;3.53;;;;;;;4.76;74.02;100616.31;4981047;28;20077;-70
2021/12/12 22:03:06;;;;;;;5.50;3.88;;;;;;;4.64;74.59;100625.53;4982147;28;20101;-70
2021/12/12 22:05:37;;;;;;;5.32;3.85;;;;;;;4.65;74.37;100606.50;4977437;28;20126;-70
2021/12/12 22:08:13;;;;;;;5.28;3.50;;;;;;;4.75;73.19;100599.84;4976285;28;20062;-72
2021/12/12 22:10:47;;;;;;;4.35;3.08;;;;;;;4.63;72.54;100626.34;4975433;28;20531;-72
2021/12/12 22:13:16;;;;;;;3.83;2.88;;;;;;;4.42;75.02;100625.75;4981328;28;20085;-72
2021/12/12 22:15:52;;;;;;;4.53;3.28;;;;;;;4.62;74.88;100637.59;4978214;28;20042;-72
2021/12/12 22:18:30;;;;;;;5.57;3.42;;;;;;;4.70;73.77;100642.13;4978039;28;20041;-72
2021/12/12 22:21:10;;;;;;;5.07;3.75;;;;;;;4.55;74.02;100645.19;4976941;28;20038;-73
2021/12/12 22:23:52;;;;;;;6.50;3.50;;;;;;;4.57;75.71;100653.91;4977780;28;20049;-73
2021/12/12 22:26:18;;;;;;;4.32;3.15;;;;;;;4.54;75.38;100636.53;4976242;28;20599;-70
2021/12/12 22:28:51;;;;;;;6.82;3.67;;;;;;;4.40;73.79;100643.94;4975557;28;20142;-72
2021/12/12 22:31:24;;;;;;;6.63;4.20;;;;;;;4.54;75.82;100651.22;4977053;28;20053;-72
2021/12/12 22:33:55;;;;;;;5.85;4.40;;;;;;;4.71;75.47;100675.09;4979089;28;20039;-71
2021/12/12 22:36:27;;;;;;;5.95;3.75;;;;;;;4.39;74.71;100649.06;4975958;28;20137;-72
2021/12/12 22:39:08;;;;;;;7.07;5.00;;;;;;;4.40;76.11;100654.31;4977024;28;20843;-72
2021/12/12 22:41:40;;;;;;;5.43;3.88;;;;;;;4.65;75.85;100674.06;4975221;28;20088;-73
2021/12/12 22:44:10;;;;;;;6.32;4.47;;;;;;;4.55;76.90;100650.38;4976975;28;20086;-72
2021/12/12 22:46:38;;;;;;;7.68;4.97;;;;;;;4.72;74.51;100643.06;4975851;28;20038;-72
2021/12/12 22:49:10;;;;;;;6.72;3.63;;;;;;;4.70;74.39;100668.13;4980076;28;20050;-73
2021/12/12 22:51:43;;;;;;;6.80;4.10;;;;;;;4.54;76.72;100683.28;4964919;28;20051;-72
2021/12/12 22:54:30;;;;;;;6.63;3.20;;;;;;;4.38;76.09;100655.13;4964106;28;20457;-72
2021/12/12 22:57:05;;;;;;;8.43;4.22;;;;;;;4.34;76.03;100674.03;4965172;28;20090;-72
2021/12/12 22:59:33;;;;;;;5.28;3.85;;;;;;;4.52;75.02;100658.97;4969113;28;20510;-72
2021/12/12 23:02:11;;;;;;;11.40;4.18;;;;;;;4.68;75.04;100686.25;4962401;28;20509;-72
2021/12/12 23:04:45;;;;;;;6.00;3.70;;;;;;;4.30;75.30;100657.47;4963133;28;20068;-72
2021/12/12 23:07:14;;;;;;;6.00;3.15;;;;;;;4.07;75.56;100667.16;4963833;28;20051;-72
2021/12/12 23:10:04;;;;;;;5.60;3.78;;;;;;;4.19;76.18;100671.84;4962272;28;20410;-72
2021/12/12 23:12:43;;;;;;;5.72;4.15;;;;;;;4.19;76.57;100646.78;4963629;28;20042;-72
2021/12/12 23:15:17;;;;;;;5.40;4.22;;;;;;;4.05;76.48;100640.31;4963230;28;20044;-72
2021/12/12 23:17:54;;;;;;;5.47;4.13;;;;;;;4.10;76.93;100646.50;4963705;28;20521;-72
2021/12/12 23:20:42;;;;;;;5.40;3.80;;;;;;;3.91;76.77;100636.38;4961215;28;20051;-71
2021/12/12 23:23:13;;;;;;;9.30;4.80;;;;;;;4.31;76.89;100643.66;4962788;28;20078;-71
2021/12/12 23:25:41;;;;;;;4.80;3.50;;;;;;;4.57;76.75;100639.19;4964479;28;20145;-71
2021/12/12 23:31:08;;;;;;;8.82;5.53;;;;;;;4.39;76.25;100662.94;4963900;28;20113;-71
2021/12/12 23:33:37;;;;;;;6.25;4.18;;;;;;;4.19;76.05;100640.69;4962284;28;20491;-72
2021/12/12 23:36:04;;;;;;;5.80;4.13;;;;;;;4.22;75.86;100648.59;4963255;28;20159;-71
2021/12/12 23:38:35;;;;;;;7.63;4.45;;;;;;;4.17;75.91;100651.03;4962773;28;20058;-72
2021/12/12 23:41:21;;;;;;;6.18;5.30;;;;;;;4.46;77.08;100657.91;4962155;28;20082;-72
2021/12/12 23:46:36;;;;;;;5.85;4.45;;;;;;;4.46;75.75;100666.59;4963276;28;20047;-71
2021/12/12 23:49:15;;;;;;;6.05;5.10;;;;;;;4.44;76.57;100655.28;4963383;28;20408;-72
2021/12/12 23:51:47;;;;;;;4.95;4.07;;;;;;;4.27;77.04;100662.56;4962433;28;20046;-71
2021/12/12 23:54:40;;;;;;;6.05;3.83;;;;;;;4.41;76.36;100679.44;4964360;28;20483;-71
2021/12/12 23:57:15;;;;;;;7.65;5.13;;;;;;;4.37;76.99;100681.91;4963052;28;20054;-71
